METAR Data
IDs: Format: Raw Decoded Include TAF

Data at: 1445 UTC 25 Jan 2020

METAR for:KICL (Clarinda/Schenck Fld, IA, US)
Text:KICL 251435Z AUTO 28011KT 9SM OVC023 M03/M04 A3013 RMK AO2
Temperature: -3.0°C ( 27°F)
Dewpoint: -4.0°C ( 25°F) [RH = 93%]
Pressure (altimeter):30.13 inches Hg (1020.4 mb)
Winds:from the W (280 degrees) at 13 MPH (11 knots; 5.7 m/s)
Visibility: 9 sm ( 14 km)
Ceiling:2300 feet AGL
Clouds: overcast cloud deck at 2300 feet AGL
QC Flag:automated observation with no human augmentation